Flight Track Log - Related Links

Times and Time Zones

All times are in EDT time to prevent confusion due to time zone crossing. See the KAP644 flight status page for this flight to view local times or setup timezone preferences in your user account.

Time Position Orientation Groundspeed Altitude Reporting Facility
EDT Latitude Longitude Course Direction KTS MPH feet Rate Location/Type
Wed 12:16:03 PM 42.3333 -70.9333 114° Southeast 125 144 1,500  Level KA90
Wed 12:17:02 PM 42.3167 -70.8833 114° Southeast 128 147 2,200 655 Climbing KA90
Wed 12:18:02 PM 42.3000 -70.8667 144° Southeast 129 148 2,800 555 Climbing KA90
Wed 12:19:01 PM 42.2500 -70.8500 166° South 135 155 3,300 300 Climbing KA90
Wed 12:20:02 PM 42.2167 -70.8333 160° South 150 173 3,400 50 Climbing KA90
Wed 12:21:01 PM 42.1667 -70.8333 180° South 160 184 3,400 50 Level KA90
Wed 12:22:02 PM 42.1333 -70.8000 143° Southeast 164 189 3,500  Climbing KA90
Wed 12:23:02 PM 42.1000 -70.7667 143° Southeast 165 190 3,400 50 Descending KA90
Wed 12:24:03 PM 42.0500 -70.7333 154° Southeast 166 191 3,600  Climbing KA90
Wed 12:25:04 PM 42.0000 -70.7333 180° South 172 198 3,400 -51 Descending KA90
Wed 12:26:01 PM 41.9667 -70.7167 160° South 165 190 3,500 51 Climbing KA90
Wed 12:27:02 PM 41.9167 -70.7000 166° South 164 189 3,500  Level KA90
Wed 12:28:02 PM 41.8667 -70.7000 180° South 168 193 3,500  Level KA90
Wed 12:30:00 PM 41.7942 -70.7181 191° South  Level FlightAware Approximate
Wed 12:37:00 PM 41.5369 -70.6510 164° South  Level Estimated
Wed 12:38:00 PM 41.5000 -70.6417 169° South  Level FlightAware Approximate
Wed 12:39:00 PM 41.4633 -70.6321 163° South  Level Estimated
Wed 12:40:00 PM 41.4274 -70.6177 163° South  Level FlightAware Approximate
Wed 12:41:00 PM 41.3934 -70.6139 163° South  Level Estimated
Wed 12:42:00 PM 41.3934 -70.6139 163° South  Level Estimated
Wed 12:43:00 PM 41.3934 -70.6139 163° South  Level Estimated
Wed 12:44:00 PM 41.3934 -70.6139 163° South  Level Estimated
Wed 12:45:00 PM 41.3934 -70.6139 163° South  Level Estimated
Wed 12:46:00 PM 41.3934 -70.6139 163° South  Level Estimated
Wed 12:47:00 PM 41.3934 -70.6139 163° South  Level Estimated
Wed 12:48:00 PM 41.3934 -70.6139 163° South  Level Estimated
Wed 12:49:00 PM 41.3934 -70.6139 163° South  Level Estimated
Wed 12:50:00 PM 41.3934 -70.6139 163° South  Level Estimated
Wed 12:51:00 PM 41.3934 -70.6139 163° South  Level Estimated
Wed 12:52:00 PM 41.3934 -70.6139 163° South  Level Estimated
Wed 12:53:00 PM 41.3934 -70.6139 163° South  Level Estimated
Wed 12:54:00 PM 41.3934 -70.6139 163° South  Level Estimated
Wed 12:55:00 PM 41.3934 -70.6139 163° South  Level Estimated
Wed 12:56:00 PM 41.3934 -70.6139 163° South  Level Estimated
Wed 12:57:00 PM 41.3934 -70.6139 163° South  Level Estimated
Wed 12:58:00 PM 41.3934 -70.6139 163° South  Level Estimated
Wed 12:59:00 PM 41.3934 -70.6139 163° South  Level Estimated

Login

Don't have an account? Register now (free) for customized features, flight alerts, and more!